Time;durP1;ratioP1;P1;durP2;ratioP2;P2;SDS_P1;SDS_P2;PMS_P1;PMS_P2;Temp;Humidity;BMP_temperature;BMP_pressure;BME280_temperature;BME280_humidity;BME280_pressure;Samples;Min_cycle;Max_cycle;Signal;HPM_P1;HPM_P2
2021/04/22 00:01:21;;;;;;;1999.90;999.90;;;7.20;99.90;;;;;;5034283;28;20188;-65
2021/04/22 00:03:47;;;;;;;1999.90;999.90;;;7.10;99.90;;;;;;5034325;28;20222;-65
2021/04/22 00:06:12;;;;;;;1999.90;999.90;;;7.10;99.90;;;;;;5033981;28;20183;-66
2021/04/22 00:08:38;;;;;;;1999.90;999.90;;;7.00;99.90;;;;;;5033915;28;20172;-64
2021/04/22 00:11:04;;;;;;;1999.90;999.90;;;7.00;99.90;;;;;;5033343;28;20200;-65
2021/04/22 00:13:30;;;;;;;1999.90;999.90;;;6.90;99.90;;;;;;5034115;28;20168;-64
2021/04/22 00:15:57;;;;;;;1999.90;999.90;;;7.00;99.90;;;;;;5033724;28;20418;-65
2021/04/22 00:18:23;;;;;;;1999.90;999.90;;;6.90;99.90;;;;;;5034051;28;20478;-65
2021/04/22 00:20:49;;;;;;;1999.90;999.90;;;6.90;99.90;;;;;;5033907;28;20870;-65
2021/04/22 00:23:16;;;;;;;1999.90;999.90;;;6.80;99.90;;;;;;5033856;28;20415;-64
2021/04/22 00:25:42;;;;;;;1999.90;999.90;;;6.80;99.90;;;;;;5032379;28;20418;-64
2021/04/22 00:28:08;;;;;;;1999.90;999.90;;;6.70;99.90;;;;;;5033855;28;20411;-65
2021/04/22 00:30:35;;;;;;;1999.90;999.90;;;6.70;99.90;;;;;;5033528;28;20451;-65
2021/04/22 00:33:14;;;;;;;1999.90;999.90;;;6.60;99.90;;;;;;5033760;28;20407;-65
2021/04/22 00:35:39;;;;;;;1999.90;999.90;;;6.50;99.90;;;;;;5033674;28;20482;-65
2021/04/22 00:38:07;;;;;;;1999.90;999.90;;;6.50;99.90;;;;;;5033646;28;20557;-65
2021/04/22 00:40:33;;;;;;;1999.90;999.90;;;6.40;99.90;;;;;;5033541;28;20200;-65
2021/04/22 00:43:00;;;;;;;1999.90;999.90;;;6.40;99.90;;;;;;5033532;28;20414;-65
2021/04/22 00:45:26;;;;;;;1999.90;999.90;;;6.30;99.90;;;;;;5033217;28;20399;-65
2021/04/22 00:47:52;;;;;;;1999.90;999.90;;;6.40;99.90;;;;;;5033496;28;20415;-65
2021/04/22 00:50:29;;;;;;;1999.90;999.90;;;6.30;99.90;;;;;;5033390;28;20454;-64
2021/04/22 00:52:56;;;;;;;1999.90;999.90;;;6.30;99.90;;;;;;5033355;28;20175;-65
2021/04/22 00:55:22;;;;;;;1999.90;999.90;;;6.20;99.90;;;;;;5033212;28;20445;-65
2021/04/22 00:57:48;;;;;;;1999.90;999.90;;;6.20;99.90;;;;;;5033297;28;20809;-65
2021/04/22 01:00:18;;;;;;;1999.90;999.90;;;6.20;99.90;;;;;;5033094;28;20661;-65
2021/04/22 01:02:45;;;;;;;1999.90;999.90;;;6.20;99.90;;;;;;5033165;28;20403;-65
2021/04/22 01:05:14;;;;;;;1999.90;999.90;;;6.20;99.90;;;;;;5033107;28;20754;-65
2021/04/22 01:07:41;;;;;;;1999.90;999.90;;;6.10;99.90;;;;;;5033041;28;20408;-64
2021/04/22 01:10:08;;;;;;;1999.90;999.90;;;6.00;99.90;;;;;;5032898;28;20451;-65
2021/04/22 01:12:34;;;;;;;1999.90;999.90;;;5.90;99.90;;;;;;5032958;28;20489;-65
2021/04/22 01:15:00;;;;;;;1999.90;999.90;;;5.80;99.90;;;;;;5032650;28;20908;-65
2021/04/22 01:17:25;;;;;;;1999.90;999.90;;;5.70;99.90;;;;;;5032922;28;20633;-64
2021/04/22 01:19:51;;;;;;;1999.90;999.90;;;5.70;99.90;;;;;;5032896;28;20171;-65
2021/04/22 01:22:17;;;;;;;1999.90;999.90;;;5.70;99.90;;;;;;5032650;28;20188;-65
2021/04/22 01:24:43;;;;;;;1999.90;999.90;;;5.70;99.90;;;;;;5032634;28;20399;-65
2021/04/22 01:27:09;;;;;;;1999.90;999.90;;;5.80;99.90;;;;;;5032621;28;20176;-65
2021/04/22 01:29:35;;;;;;;1999.90;999.90;;;5.70;99.90;;;;;;5032669;28;20168;-65
2021/04/22 01:32:00;;;;;;;1999.90;999.90;;;5.70;99.90;;;;;;5032513;28;20451;-65
2021/04/22 01:34:26;;;;;;;1999.90;999.90;;;5.70;99.90;;;;;;5032699;28;20402;-65
2021/04/22 01:36:52;;;;;;;1999.90;999.90;;;5.70;99.90;;;;;;5032318;28;20399;-65
2021/04/22 01:39:18;;;;;;;1999.90;999.90;;;5.70;99.90;;;;;;5032558;28;20172;-65
2021/04/22 01:41:43;;;;;;;1999.90;999.90;;;5.60;99.90;;;;;;5032471;28;20188;-64
2021/04/22 01:44:09;;;;;;;1999.90;999.90;;;5.70;99.90;;;;;;5032557;28;20165;-65
2021/04/22 01:46:35;;;;;;;1999.90;999.90;;;5.60;99.90;;;;;;5032335;28;20234;-65
2021/04/22 01:49:00;;;;;;;1999.90;999.90;;;5.70;99.90;;;;;;5032415;28;20203;-64
2021/04/22 01:51:26;;;;;;;1999.90;999.90;;;5.60;99.90;;;;;;5032117;28;20203;-64
2021/04/22 01:53:52;;;;;;;1999.90;999.90;;;5.60;99.90;;;;;;5032256;28;20566;-65
2021/04/22 01:56:19;;;;;;;1999.90;999.90;;;5.50;99.90;;;;;;5032103;28;20404;-65
2021/04/22 01:58:45;;;;;;;1999.90;999.90;;;5.50;99.90;;;;;;5032183;28;20415;-64
2021/04/22 02:01:11;;;;;;;1999.90;999.90;;;5.50;99.90;;;;;;5032143;28;20476;-65
2021/04/22 02:03:37;;;;;;;1999.90;999.90;;;5.50;99.90;;;;;;5032172;28;20251;-64
2021/04/22 02:06:05;;;;;;;1999.90;999.90;;;5.40;99.90;;;;;;5031777;28;20893;-65
2021/04/22 02:08:31;;;;;;;1999.90;999.90;;;5.30;99.90;;;;;;5032208;28;20538;-65
2021/04/22 02:10:58;;;;;;;1999.90;999.90;;;5.40;99.90;;;;;;5032034;28;20975;-64
2021/04/22 02:13:26;;;;;;;1999.90;999.90;;;5.30;99.90;;;;;;5031958;28;20411;-65
2021/04/22 02:15:52;;;;;;;1999.90;999.90;;;5.30;99.90;;;;;;5031888;28;20912;-65
2021/04/22 02:18:18;;;;;;;1999.90;999.90;;;5.30;99.90;;;;;;5032113;28;20804;-64
2021/04/22 02:20:44;;;;;;;1999.90;999.90;;;5.30;99.90;;;;;;5031911;28;20455;-65
2021/04/22 02:23:14;;;;;;;1999.90;999.90;;;5.30;99.90;;;;;;5031952;28;20403;-65
2021/04/22 02:25:40;;;;;;;1999.90;999.90;;;5.30;99.90;;;;;;5031653;28;20214;-65
2021/04/22 02:28:07;;;;;;;1999.90;999.90;;;5.20;99.90;;;;;;5031847;28;20446;-65
2021/04/22 02:30:36;;;;;;;1999.90;999.90;;;5.20;99.90;;;;;;5031606;28;20451;-64
2021/04/22 02:33:05;;;;;;;1999.90;999.90;;;5.20;99.90;;;;;;5033405;28;20431;-65
2021/04/22 02:35:34;;;;;;;1999.90;999.90;;;5.20;99.90;;;;;;5035666;28;20449;-65
2021/04/22 02:38:02;;;;;;;1999.90;999.90;;;5.20;99.90;;;;;;5035840;28;20395;-65
2021/04/22 02:40:29;;;;;;;1999.90;999.90;;;5.20;99.90;;;;;;5035632;28;20415;-65
2021/04/22 02:42:57;;;;;;;1999.90;999.90;;;5.10;99.90;;;;;;5035799;28;20406;-65
2021/04/22 02:45:29;;;;;;;1999.90;999.90;;;5.10;99.90;;;;;;5035602;28;20398;-65
2021/04/22 02:47:56;;;;;;;1999.90;999.90;;;5.10;99.90;;;;;;5035857;28;20754;-65
2021/04/22 02:50:26;;;;;;;1999.90;999.90;;;5.00;99.90;;;;;;5035621;28;20989;-65
2021/04/22 02:52:51;;;;;;;1999.90;999.90;;;4.90;99.90;;;;;;5035582;28;21112;-64
2021/04/22 02:55:17;;;;;;;1999.90;999.90;;;4.90;99.90;;;;;;5035322;28;20456;-65
2021/04/22 02:57:43;;;;;;;1999.90;999.90;;;4.90;99.90;;;;;;5035578;28;20406;-65
2021/04/22 03:00:14;;;;;;;1999.90;999.90;;;4.70;99.90;;;;;;5035544;28;20262;-65
2021/04/22 03:02:39;;;;;;;1999.90;999.90;;;4.50;99.90;;;;;;5035402;28;20549;-65
2021/04/22 03:05:06;;;;;;;1999.90;999.90;;;4.40;99.90;;;;;;5035078;28;20410;-65
2021/04/22 03:07:32;;;;;;;1999.90;999.90;;;4.40;99.90;;;;;;5035582;28;20933;-65
2021/04/22 03:09:58;;;;;;;1999.90;999.90;;;4.30;99.90;;;;;;5035278;28;20588;-64
2021/04/22 03:12:23;;;;;;;1999.90;999.90;;;4.30;99.90;;;;;;5035294;28;20489;-64
2021/04/22 03:14:49;;;;;;;1999.90;999.90;;;4.20;99.90;;;;;;5035000;28;20407;-65
2021/04/22 03:17:15;;;;;;;1999.90;999.90;;;4.10;99.90;;;;;;5035135;28;20202;-65
2021/04/22 03:19:40;;;;;;;1999.90;999.90;;;4.00;99.90;;;;;;5035153;28;20195;-65
2021/04/22 03:22:06;;;;;;;1999.90;999.90;;;4.00;99.90;;;;;;5035063;28;20547;-64
2021/04/22 03:24:32;;;;;;;1999.90;999.90;;;4.00;99.90;;;;;;5035056;28;20165;-65
2021/04/22 03:26:57;;;;;;;1999.90;999.90;;;4.00;99.90;;;;;;5034997;28;20180;-65
2021/04/22 03:29:23;;;;;;;1999.90;999.90;;;4.00;99.90;;;;;;5034990;28;20168;-65
2021/04/22 03:31:49;;;;;;;1999.90;999.90;;;4.10;99.90;;;;;;5075581;22;20238;-69
2021/04/22 03:34:15;;;;;;;1999.90;999.90;;;4.10;99.90;;;;;;5034825;28;20168;-68
2021/04/22 03:36:40;;;;;;;1999.90;999.90;;;4.10;99.90;;;;;;5034587;28;20171;-68
2021/04/22 03:39:06;;;;;;;1999.90;999.90;;;4.10;99.90;;;;;;5034804;28;20402;-69
2021/04/22 03:41:32;;;;;;;1999.90;999.90;;;4.00;99.90;;;;;;5034723;28;20188;-68
2021/04/22 03:43:58;;;;;;;1999.90;999.90;;;4.00;99.90;;;;;;5033648;28;20613;-68
2021/04/22 03:46:24;;;;;;;1999.90;999.90;;;3.90;99.90;;;;;;5034110;28;20172;-68
2021/04/22 03:48:49;;;;;;;1999.90;999.90;;;3.90;99.90;;;;;;5034567;28;20180;-69
2021/04/22 03:51:15;;;;;;;1999.90;999.90;;;3.90;99.90;;;;;;5034362;28;20685;-69
2021/04/22 03:53:41;;;;;;;1999.90;999.90;;;3.90;99.90;;;;;;5034669;28;20184;-68
2021/04/22 03:56:06;;;;;;;1999.90;999.90;;;3.90;99.90;;;;;;5034205;28;20176;-68
2021/04/22 03:58:32;;;;;;;1999.90;999.90;;;4.00;99.90;;;;;;5034519;28;20169;-69
2021/04/22 04:00:58;;;;;;;1999.90;999.90;;;3.90;99.90;;;;;;5034337;28;20600;-69
2021/04/22 04:03:24;;;;;;;1999.90;999.90;;;3.80;99.90;;;;;;5034265;28;20411;-68
2021/04/22 04:05:50;;;;;;;1999.90;999.90;;;3.90;99.90;;;;;;5033933;28;20502;-69
2021/04/22 04:08:16;;;;;;;1999.90;999.90;;;3.70;99.90;;;;;;5034304;28;20181;-69
2021/04/22 04:10:42;;;;;;;1999.90;999.90;;;3.80;99.90;;;;;;5034028;28;20208;-68
2021/04/22 04:13:07;;;;;;;1999.90;999.90;;;3.70;99.90;;;;;;5034180;28;20418;-68
2021/04/22 04:15:33;;;;;;;1999.90;999.90;;;3.80;99.90;;;;;;5033825;28;20626;-69
2021/04/22 04:18:00;;;;;;;1999.90;999.90;;;3.80;99.90;;;;;;5034005;28;20179;-69
2021/04/22 04:20:25;;;;;;;1999.90;999.90;;;3.80;99.90;;;;;;5034014;28;20200;-69
2021/04/22 04:22:51;;;;;;;1999.90;999.90;;;3.70;99.90;;;;;;5033957;28;20462;-69
2021/04/22 04:25:17;;;;;;;1999.90;999.90;;;3.70;99.90;;;;;;5033661;28;20180;-70
2021/04/22 04:27:43;;;;;;;1999.90;999.90;;;3.70;99.90;;;;;;5033971;28;20202;-69
2021/04/22 04:30:10;;;;;;;1999.90;999.90;;;3.60;99.90;;;;;;5033791;28;20675;-69
2021/04/22 04:32:37;;;;;;;1999.90;999.90;;;3.60;99.90;;;;;;5033436;28;20936;-69
2021/04/22 04:35:04;;;;;;;1999.90;999.90;;;3.50;99.90;;;;;;5033503;28;20435;-69
2021/04/22 04:37:29;;;;;;;1999.90;999.90;;;3.40;99.90;;;;;;5033813;28;20180;-70
2021/04/22 04:39:55;;;;;;;1999.90;999.90;;;3.40;99.90;;;;;;5033670;28;20172;-69
2021/04/22 04:42:21;;;;;;;1999.90;999.90;;;3.40;99.90;;;;;;5033493;28;20188;-69
2021/04/22 04:44:46;;;;;;;1999.90;999.90;;;3.40;99.90;;;;;;5033339;28;20256;-68
2021/04/22 04:47:12;;;;;;;1999.90;999.90;;;3.40;99.90;;;;;;5033391;28;20681;-69
2021/04/22 04:49:37;;;;;;;1999.90;999.90;;;3.40;99.90;;;;;;5033442;28;20172;-69
2021/04/22 04:52:03;;;;;;;1999.90;999.90;;;3.50;99.90;;;;;;5033333;28;20184;-69
2021/04/22 04:54:29;;;;;;;1999.90;999.90;;;3.50;99.90;;;;;;5033346;28;20578;-69
2021/04/22 04:56:55;;;;;;;1999.90;999.90;;;3.60;99.90;;;;;;5032669;28;20457;-69
2021/04/22 04:59:21;;;;;;;1999.90;999.90;;;3.70;99.90;;;;;;5033320;28;20251;-69
2021/04/22 05:01:46;;;;;;;1999.90;999.90;;;3.70;99.90;;;;;;5033047;28;20520;-69
2021/04/22 05:04:12;;;;;;;1999.90;999.90;;;3.80;99.90;;;;;;5033233;28;20168;-69
2021/04/22 05:06:38;;;;;;;1999.90;999.90;;;3.90;99.90;;;;;;5032859;28;20176;-70
2021/04/22 05:09:05;;;;;;;1999.90;999.90;;;4.00;99.90;;;;;;5033017;28;20653;-68
2021/04/22 05:11:30;;;;;;;1999.90;999.90;;;4.00;99.90;;;;;;5032912;28;20457;-69
2021/04/22 05:13:56;;;;;;;1999.90;999.90;;;4.20;99.90;;;;;;5032939;28;20403;-69
2021/04/22 05:16:22;;;;;;;1999.90;999.90;;;4.20;99.90;;;;;;5032579;28;20168;-68
2021/04/22 05:18:47;;;;;;;1999.90;999.90;;;4.30;99.90;;;;;;5032991;28;20187;-70
2021/04/22 05:21:13;;;;;;;1999.90;999.90;;;4.40;99.90;;;;;;5032797;28;20203;-68
2021/04/22 05:23:38;;;;;;;1999.90;999.90;;;4.40;99.90;;;;;;5031604;28;20176;-69
2021/04/22 05:26:04;;;;;;;1999.90;999.90;;;4.40;99.90;;;;;;5032506;28;20199;-69
2021/04/22 05:28:30;;;;;;;1999.90;999.90;;;4.30;99.90;;;;;;5032765;28;20218;-69
2021/04/22 05:30:55;;;;;;;1999.90;999.90;;;4.10;99.90;;;;;;5032281;28;20701;-68
2021/04/22 05:33:21;;;;;;;1999.90;999.90;;;4.10;99.90;;;;;;5032673;28;20153;-69
2021/04/22 05:35:47;;;;;;;1999.90;999.90;;;4.00;99.90;;;;;;5032354;28;20172;-69
2021/04/22 05:38:13;;;;;;;1999.90;999.90;;;4.00;99.90;;;;;;5032617;28;20165;-68
2021/04/22 05:40:38;;;;;;;1999.90;999.90;;;4.10;99.90;;;;;;5032481;28;20610;-69
2021/04/22 05:43:08;;;;;;;1999.90;999.90;;;4.10;99.90;;;;;;5032569;28;20490;-68
2021/04/22 05:45:35;;;;;;;1999.90;999.90;;;4.10;99.90;;;;;;5032081;28;20184;-68
2021/04/22 05:48:02;;;;;;;1999.90;999.90;;;4.20;99.90;;;;;;5032349;28;20827;-69
2021/04/22 05:50:27;;;;;;;1999.90;999.90;;;4.20;99.90;;;;;;5032256;28;20473;-68
2021/04/22 05:52:53;;;;;;;1999.90;999.90;;;4.30;99.90;;;;;;5032531;28;20944;-68
2021/04/22 05:55:19;;;;;;;1999.90;999.90;;;4.30;99.90;;;;;;5031955;28;20168;-69
2021/04/22 05:57:46;;;;;;;1999.90;999.90;;;4.30;99.90;;;;;;5032266;28;20172;-68
2021/04/22 06:00:15;;;;;;;1999.90;999.90;;;4.40;99.90;;;;;;5032154;28;20706;-68
2021/04/22 06:02:41;;;;;;;1999.90;999.90;;;4.50;99.90;;;;;;5032078;28;21015;-69
2021/04/22 06:05:07;;;;;;;1999.90;999.90;;;4.60;99.90;;;;;;5031904;28;20497;-69
2021/04/22 06:07:33;;;;;;;1999.90;999.90;;;4.80;99.90;;;;;;5031520;28;20255;-69
2021/04/22 06:09:58;;;;;;;1999.90;999.90;;;4.80;99.90;;;;;;5032164;28;20888;-68
2021/04/22 06:12:24;;;;;;;1999.90;999.90;;;4.90;99.90;;;;;;5031978;28;20262;-67
2021/04/22 06:14:49;;;;;;;1999.90;999.90;;;5.00;99.90;;;;;;5031758;28;20246;-67
2021/04/22 06:17:15;;;;;;;1999.90;999.90;;;5.20;99.90;;;;;;5032202;28;20169;-68
2021/04/22 06:19:41;;;;;;;1999.90;999.90;;;5.30;99.90;;;;;;5031980;28;20161;-68
2021/04/22 06:22:07;;;;;;;1999.90;999.90;;;5.30;99.90;;;;;;5031987;28;20192;-67
2021/04/22 06:24:32;;;;;;;1999.90;999.90;;;5.30;99.90;;;;;;5031895;28;20399;-67
2021/04/22 06:26:58;;;;;;;1999.90;999.90;;;5.40;99.90;;;;;;5031677;28;20587;-67
2021/04/22 06:29:23;;;;;;;1999.90;999.90;;;5.50;99.90;;;;;;5031795;28;20164;-68
2021/04/22 06:31:50;;;;;;;1999.90;999.90;;;5.60;99.90;;;;;;5031686;28;20318;-68
2021/04/22 06:34:16;;;;;;;1999.90;999.90;;;5.80;99.90;;;;;;5031859;28;20252;-68
2021/04/22 06:36:44;;;;;;;1999.90;999.90;;;5.90;99.90;;;;;;5031544;28;20988;-68
2021/04/22 06:39:10;;;;;;;1999.90;999.90;;;6.00;99.90;;;;;;5031794;28;20407;-69
2021/04/22 06:41:36;;;;;;;1999.90;999.90;;;6.10;99.90;;;;;;5031694;28;20997;-69
2021/04/22 06:44:02;;;;;;;1999.90;999.90;;;6.10;99.90;;;;;;5031669;28;20407;-68
2021/04/22 06:46:28;;;;;;;1999.90;999.90;;;6.10;99.90;;;;;;5031620;28;20188;-68
2021/04/22 06:48:54;;;;;;;1999.90;999.90;;;6.20;99.90;;;;;;5031679;28;20403;-68
2021/04/22 06:51:20;;;;;;;1999.90;999.90;;;6.10;99.90;;;;;;5031651;28;20208;-68
2021/04/22 06:53:46;;;;;;;1999.90;999.90;;;6.10;99.90;;;;;;5031473;28;20784;-68
2021/04/22 06:56:12;;;;;;;1999.90;999.90;;;6.00;99.90;;;;;;5031235;28;20410;-69
2021/04/22 06:58:37;;;;;;;1999.90;999.90;;;6.10;99.90;;;;;;5031429;28;20180;-68
2021/04/22 07:01:03;;;;;;;1999.90;999.90;;;6.10;99.90;;;;;;5031463;28;20188;-68
2021/04/22 07:03:29;;;;;;;1999.90;999.90;;;6.10;99.90;;;;;;5031742;28;20169;-68
2021/04/22 07:05:55;;;;;;;1999.90;999.90;;;6.00;99.90;;;;;;5031326;28;20257;-68
2021/04/22 07:08:20;;;;;;;1999.90;999.90;;;6.10;99.90;;;;;;5031510;28;20667;-68
2021/04/22 07:10:46;;;;;;;1999.90;999.90;;;6.10;99.90;;;;;;5031277;28;20544;-69
2021/04/22 07:13:12;;;;;;;1999.90;999.90;;;6.20;99.90;;;;;;5031382;28;20536;-68
2021/04/22 07:15:38;;;;;;;1999.90;999.90;;;6.20;99.90;;;;;;5031096;28;20172;-68
2021/04/22 07:18:08;;;;;;;1999.90;999.90;;;6.40;99.90;;;;;;5031414;28;20543;-67
2021/04/22 07:20:34;;;;;;;1999.90;999.90;;;6.50;99.90;;;;;;5035055;28;20896;-68
2021/04/22 07:23:00;;;;;;;1999.90;999.90;;;6.80;99.90;;;;;;5035116;28;20407;-68
2021/04/22 07:25:30;;;;;;;1999.90;999.90;;;7.00;99.90;;;;;;5034685;28;20164;-68
2021/04/22 07:27:56;;;;;;;1999.90;999.90;;;7.10;99.90;;;;;;5035143;28;20413;-67
2021/04/22 07:30:23;;;;;;;1999.90;999.90;;;7.10;99.90;;;;;;5034792;28;20887;-68
2021/04/22 07:32:49;;;;;;;1999.90;999.90;;;7.30;99.90;;;;;;5034637;28;20446;-68
2021/04/22 07:35:18;;;;;;;1999.90;999.90;;;7.60;99.90;;;;;;5034559;28;20866;-68
2021/04/22 07:37:44;;;;;;;1999.90;999.90;;;7.80;99.90;;;;;;5034761;28;20439;-67
2021/04/22 07:40:13;;;;;;;1999.90;999.90;;;8.00;99.90;;;;;;5034667;28;20411;-68
2021/04/22 07:42:39;;;;;;;1999.90;999.90;;;8.10;99.90;;;;;;5034568;28;20427;-67
2021/04/22 07:45:06;;;;;;;1999.90;999.90;;;8.20;99.90;;;;;;5034420;28;20414;-67
2021/04/22 07:47:31;;;;;;;1999.90;999.90;;;8.40;99.90;;;;;;5034796;28;20556;-68
2021/04/22 07:49:57;;;;;;;1999.90;999.90;;;8.30;99.90;;;;;;5034513;28;20454;-69
2021/04/22 07:52:24;;;;;;;1999.90;999.90;;;8.30;99.90;;;;;;5034442;28;20216;-68
2021/04/22 07:54:50;;;;;;;1999.90;999.90;;;8.20;99.90;;;;;;5034073;28;20255;-68
2021/04/22 07:57:15;;;;;;;1999.90;999.90;;;7.90;99.90;;;;;;5034420;28;20450;-68
2021/04/22 07:59:41;;;;;;;1999.90;999.90;;;7.80;99.90;;;;;;5034259;28;20161;-68
2021/04/22 08:02:08;;;;;;;1999.90;999.90;;;8.00;99.90;;;;;;5034416;28;20415;-67
2021/04/22 08:04:34;;;;;;;1999.90;999.90;;;8.30;99.90;;;;;;5034313;28;20669;-68
2021/04/22 08:07:00;;;;;;;1999.90;999.90;;;8.70;99.90;;;;;;5034043;28;20405;-68
2021/04/22 08:09:26;;;;;;;1999.90;999.90;;;9.10;99.90;;;;;;5034151;28;20412;-69
2021/04/22 08:11:52;;;;;;;1999.90;999.90;;;9.50;99.90;;;;;;5034021;28;20583;-68
2021/04/22 08:14:17;;;;;;;1999.90;999.90;;;9.80;99.90;;;;;;5034250;28;20165;-68
2021/04/22 08:16:43;;;;;;;1999.90;999.90;;;9.90;99.90;;;;;;5033771;28;20413;-68
2021/04/22 08:19:08;;;;;;;1999.90;999.90;;;10.20;99.90;;;;;;5034047;28;20157;-68
2021/04/22 08:21:34;;;;;;;1999.90;999.90;;;10.30;99.90;;;;;;5034033;28;20212;-69
2021/04/22 08:24:00;;;;;;;1999.90;999.90;;;10.50;99.90;;;;;;5033889;28;20209;-68
2021/04/22 08:26:26;;;;;;;1999.90;999.90;;;10.70;99.90;;;;;;5033653;28;20175;-68
2021/04/22 08:28:51;;;;;;;1999.90;999.90;;;10.80;99.90;;;;;;5033962;28;20176;-68
2021/04/22 08:31:24;;;;;;;1999.90;999.90;;;11.00;99.90;;;;;;5032775;28;20481;-68
2021/04/22 08:33:57;;;;;;;1999.90;999.90;;;11.10;99.90;;;;;;5033735;28;20171;-69
2021/04/22 08:36:24;;;;;;;1999.90;999.90;;;10.60;99.90;;;;;;5033410;28;20395;-68
2021/04/22 08:38:50;;;;;;;1999.90;999.90;;;10.50;99.90;;;;;;5033602;28;20497;-68
2021/04/22 08:41:16;;;;;;;1999.90;999.90;;;10.60;99.90;;;;;;5033541;28;20528;-69
2021/04/22 08:43:42;;;;;;;1999.90;999.90;;;11.00;99.90;;;;;;5033562;28;20406;-68
2021/04/22 08:46:09;;;;;;;1999.90;999.90;;;11.20;99.90;;;;;;5031044;28;20418;-67
2021/04/22 08:48:37;;;;;;;1999.90;999.90;;;11.50;99.90;;;;;;5032639;28;20816;-67
2021/04/22 08:51:05;;;;;;;1999.90;999.90;;;11.70;99.90;;;;;;5032417;28;20853;-68
2021/04/22 08:53:34;;;;;;;1999.90;999.90;;;12.10;99.90;;;;;;5032584;28;20557;-68
2021/04/22 08:56:00;;;;;;;1999.90;999.90;;;12.10;99.90;;;;;;5032301;28;20759;-68
2021/04/22 08:58:27;;;;;;;1999.90;999.90;;;12.20;99.90;;;;;;5032987;28;20753;-68
2021/04/22 09:01:19;;;;;;;1999.90;999.90;;;12.30;99.90;;;;;;5032483;28;20411;-67
2021/04/22 09:03:47;;;;;;;1999.90;999.90;;;12.60;99.90;;;;;;5032497;28;20656;-67
2021/04/22 09:06:15;;;;;;;1999.90;999.90;;;12.50;99.90;;;;;;5032750;28;20474;-68
2021/04/22 09:08:51;;;;;;;1999.90;999.90;;;12.20;99.90;;;;;;5032988;28;20774;-67
2021/04/22 09:11:25;;;;;;;1999.90;999.90;;;12.30;99.90;;;;;;5032561;28;20450;-67
2021/04/22 09:13:52;;;;;;;1999.90;999.90;;;12.10;99.90;;;;;;5032671;28;20397;-68
2021/04/22 09:16:21;;;;;;;1999.90;999.90;;;11.40;99.90;;;;;;5029244;28;20411;-68
2021/04/22 09:18:54;;;;;;;1999.90;999.90;;;10.90;99.90;;;;;;5031258;28;20407;-67
2021/04/22 09:21:22;;;;;;;1999.90;999.90;;;10.40;99.90;;;;;;5027716;28;20552;-67
2021/04/22 09:24:08;;;;;;;1999.90;999.90;;;10.10;99.90;;;;;;5028910;28;20784;-67
2021/04/22 09:26:53;;;;;;;1999.90;999.90;;;10.20;99.90;;;;;;5027726;28;20425;-68
2021/04/22 09:29:42;;;;;;;1999.90;999.90;;;10.50;99.90;;;;;;5030362;28;20450;-67
2021/04/22 09:32:16;;;;;;;1999.90;999.90;;;10.80;99.90;;;;;;5034086;28;20481;-69
2021/04/22 09:34:50;;;;;;;1999.90;999.90;;;10.90;99.90;;;;;;5034665;28;20417;-67
2021/04/22 09:37:20;;;;;;;1999.90;999.90;;;10.70;99.90;;;;;;5029233;28;20417;-69
2021/04/22 09:39:47;;;;;;;1999.90;999.90;;;10.60;99.90;;;;;;5025018;28;20505;-68
2021/04/22 09:42:14;;;;;;;1999.90;999.90;;;10.50;99.90;;;;;;5026025;28;20460;-67
2021/04/22 09:44:47;;;;;;;1999.90;999.90;;;10.30;99.90;;;;;;5026364;28;20409;-69
2021/04/22 09:47:21;;;;;;;1999.90;999.90;;;10.60;99.90;;;;;;5026043;28;20413;-67
2021/04/22 09:50:01;;;;;;;1999.90;999.90;;;11.10;99.90;;;;;;5025845;28;20425;-67
2021/04/22 09:52:39;;;;;;;1999.90;999.90;;;11.70;99.90;;;;;;5026443;28;20438;-68
2021/04/22 09:55:14;;;;;;;1999.90;999.90;;;12.20;99.90;;;;;;5026038;28;20414;-68
2021/04/22 09:57:41;;;;;;;1999.90;999.90;;;12.60;99.90;;;;;;5027881;28;20505;-69
2021/04/22 10:00:14;;;;;;;1999.90;999.90;;;12.60;99.90;;;;;;5033471;28;20415;-69
2021/04/22 10:02:52;;;;;;;1999.90;999.90;;;12.10;99.90;;;;;;5032597;28;20431;-69
2021/04/22 10:05:25;;;;;;;1999.90;999.90;;;11.20;99.90;;;;;;5032139;28;20506;-69
2021/04/22 10:08:16;;;;;;;1999.90;999.90;;;10.70;99.90;;;;;;5035672;28;20429;-69
2021/04/22 10:11:05;;;;;;;1999.90;999.90;;;10.60;99.90;;;;;;5036180;28;20464;-67
2021/04/22 10:13:44;;;;;;;1999.90;999.90;;;11.00;99.90;;;;;;5036561;28;20975;-69
2021/04/22 10:16:10;;;;;;;1999.90;999.90;;;11.50;99.90;;;;;;5035163;28;20437;-69
2021/04/22 10:18:38;;;;;;;1999.90;999.90;;;11.40;99.90;;;;;;5035222;28;20425;-67
2021/04/22 10:21:04;;;;;;;1999.90;999.90;;;11.40;99.90;;;;;;5035647;28;20440;-70
2021/04/22 10:23:30;;;;;;;1999.90;999.90;;;10.60;99.90;;;;;;5036544;28;20414;-68
2021/04/22 10:25:56;;;;;;;1999.90;999.90;;;10.30;99.90;;;;;;5034832;28;20484;-66
2021/04/22 10:28:23;;;;;;;1999.90;999.90;;;10.20;99.90;;;;;;5032829;28;20997;-68
2021/04/22 10:30:52;;;;;;;1999.90;999.90;;;10.20;99.90;;;;;;5032027;28;20470;-69
2021/04/22 10:33:19;;;;;;;1999.90;999.90;;;10.20;99.90;;;;;;5033764;28;20442;-66
2021/04/22 10:35:46;;;;;;;1999.90;999.90;;;10.20;99.90;;;;;;5034830;28;20418;-68
2021/04/22 10:38:12;;;;;;;1999.90;999.90;;;10.50;99.90;;;;;;5035385;28;20545;-69
2021/04/22 10:40:47;;;;;;;1999.90;999.90;;;11.20;99.90;;;;;;5034844;28;20437;-69
2021/04/22 10:43:23;;;;;;;1999.90;999.90;;;11.90;99.90;;;;;;5033988;28;20510;-66
2021/04/22 10:45:53;;;;;;;1999.90;999.90;;;12.50;99.90;;;;;;5033159;28;20447;-67
2021/04/22 10:48:20;;;;;;;1999.90;999.90;;;12.80;99.90;;;;;;5034741;28;20415;-69
2021/04/22 10:50:48;;;;;;;1999.90;999.90;;;12.00;99.90;;;;;;5034055;28;20459;-69
2021/04/22 10:53:20;;;;;;;1999.90;999.90;;;11.40;99.90;;;;;;5036286;28;20418;-68
2021/04/22 10:55:48;;;;;;;1999.90;999.90;;;11.20;99.90;;;;;;5039760;28;20432;-68
2021/04/22 10:58:18;;;;;;;1999.90;999.90;;;11.10;99.90;;;;;;5039853;28;20433;-68
2021/04/22 11:00:53;;;;;;;1999.90;999.90;;;11.00;99.90;;;;;;5039651;28;20409;-68
2021/04/22 11:03:40;;;;;;;1999.90;999.90;;;10.70;99.90;;;;;;5043093;28;20422;-68
2021/04/22 11:06:09;;;;;;;1999.90;999.90;;;10.90;99.90;;;;;;5039312;28;20959;-69
2021/04/22 11:08:42;;;;;;;1999.90;999.90;;;11.30;99.90;;;;;;5037307;28;20456;-69
2021/04/22 11:11:16;;;;;;;1999.90;999.90;;;11.00;99.90;;;;;;5037321;28;20460;-68
2021/04/22 11:13:43;;;;;;;1999.90;999.90;;;11.10;99.90;;;;;;5039487;28;20414;-69
2021/04/22 11:16:09;;;;;;;1999.90;999.90;;;11.70;99.90;;;;;;5039351;28;20413;-66
2021/04/22 11:18:36;;;;;;;1999.90;999.90;;;12.20;99.90;;;;;;5040483;28;20418;-70
2021/04/22 11:21:04;;;;;;;1999.90;999.90;;;12.10;99.90;;;;;;5038865;28;20522;-70
2021/04/22 11:23:40;;;;;;;1999.90;999.90;;;12.00;99.90;;;;;;5037925;28;20451;-66
2021/04/22 11:26:17;;;;;;;1999.90;999.90;;;12.00;99.90;;;;;;5040366;28;20770;-66
2021/04/22 11:28:43;;;;;;;1999.90;999.90;;;12.00;99.90;;;;;;5039850;28;20425;-67
2021/04/22 11:31:15;;;;;;;1999.90;999.90;;;12.00;99.90;;;;;;5038927;28;20493;-69
2021/04/22 11:33:41;;;;;;;1999.90;999.90;;;11.90;99.90;;;;;;5037813;28;20649;-67
2021/04/22 11:36:11;;;;;;;1999.90;999.90;;;11.80;99.90;;;;;;5040309;28;20418;-66
2021/04/22 11:38:53;;;;;;;1999.90;999.90;;;11.70;99.90;;;;;;5041938;28;20183;-69
2021/04/22 11:41:22;;;;;;;1999.90;999.90;;;11.70;99.90;;;;;;5039745;28;20816;-65
2021/04/22 11:44:03;;;;;;;1999.90;999.90;;;11.90;99.90;;;;;;5042904;28;20426;-69
2021/04/22 11:46:37;;;;;;;1999.90;999.90;;;12.30;99.90;;;;;;5039025;28;20488;-69
2021/04/22 11:49:04;;;;;;;1999.90;999.90;;;13.00;99.90;;;;;;5039577;28;20416;-69
2021/04/22 11:51:34;;;;;;;1999.90;999.90;;;13.70;99.90;;;;;;5037126;28;20473;-69
2021/04/22 11:54:00;;;;;;;1999.90;999.90;;;14.20;99.90;;;;;;5038843;28;20413;-68
2021/04/22 11:56:27;;;;;;;1999.90;999.90;;;14.50;99.90;;;;;;5037782;28;20436;-67
2021/04/22 11:58:53;;;;;;;1999.90;999.90;;;14.50;99.90;;;;;;5039997;28;20533;-69
2021/04/22 12:01:19;;;;;;;1999.90;999.90;;;15.20;99.90;;;;;;5037986;28;20438;-68
2021/04/22 12:03:46;;;;;;;1999.90;999.90;;;15.30;97.10;;;;;;5038354;28;20420;-70
2021/04/22 12:06:14;;;;;;;1999.90;999.90;;;15.80;97.00;;;;;;5037230;28;20548;-68
2021/04/22 12:08:41;;;;;;;1999.90;999.90;;;16.10;94.30;;;;;;5037833;28;20431;-69